createdAt,value
2018-01-03T17:22:18.962Z,993.12
2018-01-03T17:23:19.303Z,993.11
2018-01-03T17:24:28.133Z,993.09
2018-01-03T17:25:28.519Z,993.16
2018-01-03T17:26:28.113Z,993.2
2018-01-03T17:27:28.736Z,993.23
2018-01-03T17:28:28.315Z,993.19
2018-01-03T17:29:28.161Z,993.21
2018-01-03T17:30:28.663Z,993.11
2018-01-03T17:31:28.145Z,993.11
2018-01-03T17:32:28.426Z,993.06
2018-01-03T17:33:30.423Z,993.22
2018-01-03T17:34:30.442Z,993.24
2018-01-03T17:35:30.794Z,993.26
2018-01-03T17:35:47.530Z,993.28
2018-01-03T17:36:47.981Z,993.29
2018-01-03T17:37:47.402Z,993.23
2018-01-03T17:38:51.572Z,993.27
2018-01-03T17:39:47.900Z,993.26
2018-01-03T17:40:47.323Z,993.26
2018-01-03T17:41:47.634Z,993.28
2018-01-03T17:42:48.049Z,993.19
2018-01-03T17:43:48.086Z,993.25
2018-01-03T17:44:47.592Z,993.33
2018-01-03T17:45:48.034Z,993.25
2018-01-03T17:46:47.721Z,993.26
2018-01-03T17:47:48.216Z,993.18
2018-01-03T17:48:47.475Z,993.2
2018-01-03T17:49:47.839Z,993.18
2018-01-03T17:50:48.154Z,993.25
2018-01-03T17:51:47.308Z,993.29
2018-01-03T17:52:47.576Z,993.24
2018-01-03T17:53:47.856Z,993.24
2018-01-03T17:54:48.157Z,993.13
2018-01-03T17:55:47.515Z,993.23
2018-01-03T17:56:47.900Z,993.28
2018-01-03T17:57:47.491Z,993.28
2018-01-03T17:58:47.748Z,993.32
2018-01-03T17:59:48.167Z,993.45
2018-01-03T18:00:47.496Z,993.56
2018-01-03T18:01:47.755Z,993.51
2018-01-03T18:02:48.106Z,993.4
2018-01-03T18:03:47.436Z,993.47
2018-01-03T18:04:47.984Z,993.54
2018-01-03T18:05:47.474Z,993.57
2018-01-03T18:06:47.625Z,993.55
2018-01-03T18:07:47.795Z,993.59
2018-01-03T18:08:48.183Z,993.59
2018-01-03T18:09:47.616Z,993.62
2018-01-03T18:10:47.717Z,993.58
2018-01-03T18:11:47.892Z,993.65
2018-01-03T18:12:48.135Z,993.59
2018-01-03T18:13:48.411Z,993.56
2018-01-03T18:14:47.929Z,993.6
2018-01-03T18:15:48.101Z,993.6
2018-01-03T18:16:47.533Z,993.61
2018-01-03T18:17:47.918Z,993.64
2018-01-03T18:18:48.073Z,993.58
2018-01-03T18:19:47.553Z,993.65
2018-01-03T18:20:48.040Z,993.55
2018-01-03T18:21:48.347Z,993.58
2018-01-03T18:22:47.581Z,993.6
2018-01-03T18:23:47.848Z,993.5
2018-01-03T18:24:48.179Z,993.61
2018-01-03T18:25:48.340Z,993.5
2018-01-03T18:26:47.900Z,993.57
2018-01-03T18:27:48.336Z,993.57
2018-01-03T18:28:47.831Z,993.52
2018-01-03T18:29:48.411Z,993.53
2018-01-03T18:30:48.054Z,993.52
2018-01-03T18:31:48.435Z,993.49
2018-01-03T18:32:47.931Z,993.54
2018-01-03T18:33:48.445Z,993.56
2018-01-03T18:34:47.772Z,993.55
2018-01-03T18:35:48.052Z,993.55
2018-01-03T18:36:47.352Z,993.61
2018-01-03T18:37:47.702Z,993.58
2018-01-03T18:38:47.155Z,993.55
2018-01-03T18:39:47.407Z,993.66
2018-01-03T18:40:47.160Z,993.73
2018-01-03T18:41:47.681Z,993.71
2018-01-03T18:42:48.006Z,993.6
2018-01-03T18:43:47.534Z,993.64
2018-01-03T18:44:47.994Z,993.65
2018-01-03T18:45:47.418Z,993.62
2018-01-03T18:46:48.074Z,993.63
2018-01-03T18:47:47.634Z,993.59
2018-01-03T18:48:47.261Z,993.61
2018-01-03T18:49:47.658Z,993.55
2018-01-03T18:50:47.858Z,993.59
2018-01-03T18:51:47.530Z,993.54
2018-01-03T18:52:33.349Z,993.52
2018-01-03T18:53:33.511Z,993.55
2018-01-03T18:54:33.467Z,993.51
2018-01-03T18:55:33.818Z,993.64
2018-01-03T18:56:33.470Z,993.54
2018-01-03T18:57:34.219Z,993.64
2018-01-03T18:58:33.911Z,993.55
2018-01-03T18:59:33.392Z,993.58
2018-01-03T19:00:34.123Z,993.64
2018-01-03T19:01:33.613Z,993.5
2018-01-03T19:02:34.068Z,993.53
2018-01-03T19:03:34.179Z,993.53
2018-01-03T19:04:33.852Z,993.54
2018-01-03T19:05:33.569Z,993.51
2018-01-03T19:06:34.005Z,993.59
2018-01-03T19:07:34.102Z,993.45
2018-01-03T19:08:33.529Z,993.48
2018-01-03T19:09:33.774Z,993.47
2018-01-03T19:10:33.897Z,993.43
2018-01-03T19:11:33.449Z,993.47
2018-01-03T19:12:33.353Z,993.55
2018-01-03T19:13:33.936Z,993.59
2018-01-03T19:14:33.452Z,993.58
2018-01-03T19:15:33.288Z,993.62
2018-01-03T19:16:33.884Z,993.64
2018-01-03T19:17:33.417Z,993.67
2018-01-03T19:18:33.955Z,993.71
2018-01-03T19:19:33.219Z,993.78
2018-01-03T19:20:33.961Z,993.84
2018-01-03T19:21:33.714Z,993.76
2018-01-03T19:22:33.471Z,993.82
2018-01-03T19:23:33.773Z,993.8
2018-01-03T19:24:35.042Z,993.77
2018-01-03T19:25:33.837Z,993.81
2018-01-03T19:26:33.199Z,993.72
2018-01-03T19:27:33.592Z,993.71
2018-01-03T19:28:35.131Z,993.75
2018-01-03T19:29:34.100Z,993.77
2018-01-03T19:30:33.517Z,993.69
2018-01-03T19:31:33.290Z,993.75
2018-01-03T19:32:34.425Z,993.95
2018-01-03T19:33:34.163Z,993.99
2018-01-03T19:34:34.224Z,993.88
2018-01-03T19:35:34.433Z,993.93
2018-01-03T19:36:33.334Z,993.92
2018-01-03T19:37:33.689Z,993.81
2018-01-03T19:38:33.583Z,993.8
2018-01-03T19:39:34.308Z,993.83
2018-01-03T19:40:33.247Z,993.81
2018-01-03T19:41:33.949Z,993.64
2018-01-03T19:42:34.338Z,993.65
2018-01-03T19:43:33.510Z,993.68
2018-01-03T19:44:33.924Z,993.71
2018-01-03T19:45:34.964Z,993.77
2018-01-03T19:46:33.723Z,993.64
2018-01-03T19:47:33.706Z,993.56
2018-01-03T19:48:33.586Z,993.58
2018-01-03T19:49:34.153Z,993.6
2018-01-03T19:50:34.149Z,993.63
2018-01-03T19:51:33.839Z,993.6
2018-01-03T19:52:34.173Z,993.62
2018-01-03T19:53:33.950Z,993.68
2018-01-03T19:54:33.526Z,993.64
2018-01-03T19:55:33.474Z,993.6
2018-01-03T19:56:33.794Z,993.57
2018-01-03T19:57:33.472Z,993.58
2018-01-03T19:58:33.384Z,993.58
2018-01-03T19:59:33.988Z,993.64
2018-01-03T20:00:33.372Z,993.58
2018-01-03T20:01:33.758Z,993.67
2018-01-03T20:02:33.408Z,993.64
2018-01-03T20:03:34.015Z,993.69
2018-01-03T20:04:33.764Z,993.74
2018-01-03T20:05:33.377Z,993.78
2018-01-03T20:06:33.922Z,993.82
2018-01-03T20:07:33.440Z,993.83
2018-01-03T20:08:34.146Z,993.88
2018-01-03T20:09:34.900Z,993.78
2018-01-03T20:10:33.855Z,993.91
2018-01-03T20:11:33.434Z,993.9
2018-01-03T20:12:33.698Z,993.91
2018-01-03T20:13:33.864Z,993.97
2018-01-03T20:14:33.283Z,993.96
2018-01-03T20:14:52.808Z,993.95
2018-01-03T20:15:52.528Z,993.93
2018-01-03T20:16:53.260Z,993.97
2018-01-03T20:17:53.066Z,993.92
2018-01-03T20:18:53.581Z,993.94
2018-01-03T20:19:53.745Z,993.96
2018-01-03T20:20:53.746Z,994.02
2018-01-03T20:21:52.835Z,993.92
2018-01-03T20:22:54.156Z,993.98
2018-01-03T20:23:52.692Z,994.03
2018-01-03T20:24:53.396Z,993.94
2018-01-03T20:25:53.425Z,994.05
2018-01-03T20:26:52.893Z,994.1
2018-01-03T20:27:54.704Z,994.12
2018-01-03T20:28:53.186Z,994.12
2018-01-03T20:29:53.088Z,994.11
2018-01-03T20:30:52.859Z,994.08
2018-01-03T20:31:28.364Z,994.1
2018-01-03T20:32:28.981Z,994.07
2018-01-03T20:33:28.839Z,994.05
2018-01-03T20:34:28.753Z,993.99
2018-01-03T20:35:28.196Z,994.07
2018-01-03T20:36:28.777Z,994.06
2018-01-03T20:37:28.336Z,994.07
2018-01-03T20:38:28.608Z,994.05
2018-01-03T20:39:28.247Z,994.02
2018-01-03T20:40:29.068Z,994
2018-01-03T20:41:28.440Z,994.1
2018-01-03T20:42:29.843Z,994.06
2018-01-03T20:43:28.792Z,994.07
2018-01-03T20:44:28.958Z,994.01
2018-01-03T20:45:28.884Z,993.99
2018-01-03T20:46:28.618Z,993.83
2018-01-03T20:47:29.710Z,993.91
2018-01-03T20:48:28.306Z,993.9
2018-01-03T20:49:28.393Z,993.89
2018-01-03T20:50:28.490Z,994.01
2018-01-03T20:51:28.970Z,993.94
2018-01-03T20:52:28.916Z,994.04
2018-01-03T20:53:28.648Z,994.07
2018-01-03T20:54:28.199Z,994.04
2018-01-03T20:55:29.078Z,994.05
2018-01-03T20:56:28.907Z,994.02
2018-01-03T20:57:28.797Z,994.01
2018-01-03T20:58:28.277Z,994.02
2018-01-03T20:59:28.984Z,994.18
2018-01-03T21:00:28.497Z,994.07
2018-01-03T21:01:29.433Z,994.16
2018-01-03T21:02:28.315Z,994.16
2018-01-03T21:03:28.942Z,994.14
2018-01-03T21:04:28.376Z,994.04
2018-01-03T21:05:28.928Z,994.08
2018-01-03T21:06:28.361Z,993.99
2018-01-03T21:07:29.682Z,993.98
2018-01-03T21:08:04.264Z,993.96
2018-01-03T21:08:26.911Z,993.99
2018-01-03T21:09:26.257Z,994.03
2018-01-03T21:10:26.562Z,994.02
2018-01-03T21:11:28.293Z,994.13
2018-01-03T21:12:27.204Z,994.12
2018-01-03T21:13:26.393Z,994.04
2018-01-03T21:14:27.826Z,993.99
2018-01-03T21:15:27.595Z,993.98
2018-01-03T21:16:26.438Z,994.09
2018-01-03T21:17:26.487Z,994.06
2018-01-03T21:18:26.726Z,994.03
2018-01-03T21:19:26.667Z,994.12
2018-01-03T21:20:28.319Z,994.1
2018-01-03T21:21:28.000Z,994.19
2018-01-03T21:22:27.002Z,994.33
2018-01-03T21:23:27.550Z,994.18
2018-01-03T21:24:26.510Z,994.16
2018-01-03T21:25:27.067Z,994.23
2018-01-03T21:26:27.019Z,994.14
2018-01-03T21:27:27.201Z,994.1
2018-01-03T21:28:27.135Z,994.21
2018-01-03T21:29:26.407Z,994.11
2018-01-03T21:30:26.850Z,994.25
2018-01-03T21:31:26.345Z,994.17
2018-01-03T21:32:26.839Z,994.21
2018-01-03T21:33:26.320Z,994.24
2018-01-03T21:34:26.465Z,994.25
2018-01-03T21:35:26.827Z,994.19
2018-01-03T21:36:26.033Z,994.27
2018-01-03T21:37:26.884Z,994.19
2018-01-03T21:38:26.606Z,994.18
2018-01-03T21:39:27.110Z,994.19
2018-01-03T21:40:32.582Z,994.18
2018-01-03T21:41:27.993Z,994.12
2018-01-03T21:42:27.221Z,994.32
2018-01-03T21:43:27.075Z,994.01
2018-01-03T21:44:27.462Z,994.07
2018-01-03T21:45:27.367Z,993.98
2018-01-03T21:46:26.845Z,994
2018-01-03T21:47:27.926Z,993.99
2018-01-03T21:48:26.661Z,994.11
2018-01-03T21:49:27.076Z,994.2
2018-01-03T21:50:27.388Z,994.14
2018-01-03T21:51:26.625Z,994.16
2018-01-03T21:52:27.064Z,994.21
2018-01-03T21:53:27.040Z,994.28
2018-01-03T21:54:26.446Z,994.29
2018-01-03T21:55:26.842Z,994.37
2018-01-03T21:56:27.775Z,994.27
2018-01-03T21:57:26.536Z,994.2
2018-01-03T21:59:27.224Z,994.18
2018-01-03T22:00:26.962Z,994.22
2018-01-03T22:01:26.749Z,994.19
2018-01-03T22:02:30.218Z,994.24
2018-01-03T22:03:27.617Z,994.2
2018-01-03T22:04:26.584Z,994.18
2018-01-03T22:05:27.239Z,994.27
2018-01-03T22:06:26.561Z,994.32
2018-01-03T22:07:27.887Z,994.34
2018-01-03T22:08:28.130Z,994.33
2018-01-03T22:09:26.735Z,994.27
2018-01-03T22:10:27.964Z,994.32
2018-01-03T22:11:27.869Z,994.25
2018-01-03T22:12:26.937Z,994.12
2018-01-03T22:13:29.124Z,994.08
2018-01-03T22:14:26.762Z,994.04
2018-01-03T22:15:26.940Z,994.16
2018-01-03T22:16:27.442Z,994.09
2018-01-03T22:17:27.305Z,994.17
2018-01-03T22:18:26.998Z,994.18
2018-01-03T22:19:27.554Z,994.19
2018-01-03T22:20:27.313Z,994.19
2018-01-03T22:21:26.679Z,994.3
2018-01-03T22:22:27.031Z,994.21
2018-01-03T22:23:26.757Z,994.23
2018-01-03T22:24:27.448Z,994.24
2018-01-03T22:25:26.989Z,994.17
2018-01-03T22:26:27.362Z,994.13
2018-01-03T22:27:27.209Z,994.15
2018-01-03T22:28:27.020Z,994.05
2018-01-03T22:29:27.552Z,994.08
2018-01-03T22:30:28.265Z,994.04
2018-01-03T22:31:27.223Z,994.09
2018-01-03T22:32:27.653Z,994.12
2018-01-03T22:33:27.465Z,994.05
2018-01-03T22:34:26.804Z,994.09
2018-01-03T22:35:28.260Z,994.11
2018-01-03T22:36:27.093Z,994.11
2018-01-03T22:37:26.778Z,994.16
2018-01-03T22:38:27.307Z,994.2
2018-01-03T22:39:26.748Z,994.23
2018-01-03T22:40:27.253Z,994.14
2018-01-03T22:41:26.895Z,994.17
2018-01-03T22:42:27.619Z,994.14
2018-01-03T22:43:27.446Z,994.21
2018-01-03T22:44:26.742Z,994.16
2018-01-03T22:45:26.711Z,994.23
2018-01-03T22:46:27.167Z,994.2
2018-01-03T22:47:28.192Z,994.28
2018-01-03T22:48:26.841Z,994.23
2018-01-03T22:49:27.320Z,994.2
2018-01-03T22:50:27.020Z,994.14
2018-01-03T22:51:27.667Z,994.18
2018-01-03T22:52:26.937Z,994.08
2018-01-03T22:53:27.309Z,994.14
2018-01-03T22:54:27.907Z,994.08
2018-01-03T22:55:27.557Z,994.03
2018-01-03T22:56:26.852Z,994.03
2018-01-03T22:57:27.574Z,994.08
2018-01-03T22:58:27.114Z,994.13
2018-01-03T22:59:27.698Z,994.01
2018-01-03T23:00:26.827Z,993.95
2018-01-03T23:01:27.570Z,994.03
2018-01-03T23:02:27.766Z,994
2018-01-03T23:03:27.495Z,994.09
2018-01-03T23:04:27.245Z,994.07
2018-01-03T23:05:27.686Z,994.07
2018-01-03T23:06:27.217Z,994.06
2018-01-03T23:07:26.928Z,994.08
2018-01-03T23:08:27.399Z,994.11
2018-01-03T23:09:26.770Z,994.05
2018-01-03T23:10:27.758Z,994.11
2018-01-03T23:11:27.078Z,994.05
2018-01-03T23:12:27.300Z,994.09
2018-01-03T23:13:28.040Z,994.09
2018-01-03T23:14:27.406Z,994.16
2018-01-03T23:15:27.741Z,994.09
2018-01-03T23:16:27.293Z,994.14
2018-01-03T23:17:27.732Z,994.12
2018-01-03T23:18:26.786Z,994.1
2018-01-03T23:19:27.564Z,994.13
2018-01-03T23:20:27.982Z,994.01
2018-01-03T23:21:27.240Z,994.01
2018-01-03T23:22:27.554Z,994.01
2018-01-03T23:23:27.311Z,994.02
2018-01-03T23:24:27.946Z,994.04
2018-01-03T23:25:27.581Z,994.05
2018-01-03T23:26:27.863Z,994.04
2018-01-03T23:27:27.623Z,994.05
2018-01-03T23:28:27.258Z,994.05
2018-01-03T23:29:27.969Z,994.13
2018-01-03T23:30:27.615Z,994.15
2018-01-03T23:31:27.138Z,994.14
2018-01-03T23:32:27.421Z,994.18
2018-01-03T23:33:26.917Z,994.25
2018-01-03T23:34:27.859Z,994.2
2018-01-03T23:35:27.678Z,994.24
2018-01-03T23:36:27.700Z,994.3
2018-01-03T23:37:27.190Z,994.21
2018-01-03T23:38:27.093Z,994.25
2018-01-03T23:39:27.662Z,994.18
2018-01-03T23:40:27.611Z,994.22
2018-01-03T23:41:27.897Z,994.24
2018-01-03T23:42:27.010Z,994.23
2018-01-03T23:43:27.835Z,994.2
2018-01-03T23:44:27.313Z,994.25
2018-01-03T23:45:27.446Z,994.22
2018-01-03T23:46:27.449Z,994.2
2018-01-03T23:47:27.323Z,994.2
2018-01-03T23:48:26.996Z,994.15
2018-01-03T23:49:26.837Z,994.23
2018-01-03T23:50:27.416Z,994.22
2018-01-03T23:51:26.851Z,994.26
2018-01-03T23:52:27.842Z,994.22
2018-01-03T23:53:27.537Z,994.19
2018-01-03T23:54:27.313Z,994.11
2018-01-03T23:55:27.123Z,994.09
2018-01-03T23:56:27.896Z,994.16
2018-01-03T23:57:27.481Z,993.96
2018-01-03T23:58:27.016Z,994.02
2018-01-03T23:59:12.594Z,994.05
